BWI weather

Baltimore/Washington International Thurgood Marshall Airport
Baltimore, Maryland, United States

Public forecast

Using degrees Fahrenheit for public forecast. Weather courtesy of forecast.io.

METAR (pilot weather report)

Retrieved 2018/02/18 22:54 UTC (58 minutes ago):

KBWI 182254Z 00000KT 10SM SCT250 07/M02 A3043 RMK AO2 SLP305 T00721017

TAF (pilot weather forecast)

Retrieved 2018/02/18 18:46 UTC (5 hours ago):

TAF KBWI 181744Z 1818/1924 29008KT P6SM FEW040 FEW250 FM182200 23006KT P6SM FEW250 FM190000 15004KT P6SM FEW250 FM191400 18005KT P6SM BKN030 FM191700 18006KT P6SM BKN015